Search for airport 
image banner adimage banner adimage banner ad
image banner ad

CL81 - Camp 15

Located in Sunland, United States

ICAO - CL81, IATA -

Data provided by Airmate  

General information

Coordinates: N34°17'22" W118°17'17"
Elevation is 1520 feet MSL.
Magnetic variation is 14° East
View others Airports in California

Operational data

Special qualification required
Current time UTC:
Current local time:
Weather at : KBUR - Bob Hope ( 12 km )
METAR: KBUR 211153Z 13007KT 7SM OVC006 16/14 A2994 RMK AO2 SLP128 T01610139 10189 20156 53010 $
TAF: KBUR 211124Z 2112/2212 17005KT P6SM OVC008 FM211530 14008KT P6SM SKC FM212100 18011KT P6SM SKC FM220300 14008KT P6SM SKC FM221100 VRB03KT P6SM OVC008
View NOTAMs / SUP AIP / TFR affecting this airport [VIEW]
Communications frequencies: [VIEW]

Runways:

Airport contact information

Address: Sunland United States

Satellite view of CL81